Time;durP1;ratioP1;P1;durP2;ratioP2;P2;SDS_P1;SDS_P2;PMS_P1;PMS_P2;Temp;Humidity;BMP_temperature;BMP_pressure;BME280_temperature;BME280_humidity;BME280_pressure;Samples;Min_cycle;Max_cycle;Signal;HPM_P1;HPM_P2
2023/10/27 00:01:10;;;;;;;19.77;8.70;;;12.50;99.50;;;;;;5013005;28;20033;-78
2023/10/27 00:03:36;;;;;;;13.68;7.55;;;12.50;99.50;;;;;;5015668;28;20478;-80
2023/10/27 00:06:02;;;;;;;16.35;8.10;;;12.40;99.50;;;;;;5012293;28;20044;-79
2023/10/27 00:08:27;;;;;;;14.38;7.20;;;12.40;99.50;;;;;;5015668;28;20041;-75
2023/10/27 00:10:53;;;;;;;13.98;7.15;;;12.40;99.50;;;;;;5017765;28;20470;-80
2023/10/27 00:13:19;;;;;;;13.95;6.88;;;12.40;99.60;;;;;;5030156;28;20148;-77
2023/10/27 00:15:45;;;;;;;14.68;6.93;;;12.40;99.60;;;;;;5016790;28;20080;-76
2023/10/27 00:18:12;;;;;;;16.30;6.53;;;12.40;99.60;;;;;;5028173;28;20033;-76
2023/10/27 00:20:38;;;;;;;15.73;6.95;;;12.40;99.60;;;;;;5019289;28;20068;-75
2023/10/27 00:23:04;;;;;;;17.80;6.50;;;12.40;99.60;;;;;;5009756;28;20538;-78
2023/10/27 00:25:30;;;;;;;13.65;6.15;;;12.40;99.60;;;;;;5014756;28;20076;-77
2023/10/27 00:27:55;;;;;;;12.13;6.32;;;12.40;99.60;;;;;;5033246;28;20564;-76
2023/10/27 00:30:21;;;;;;;14.15;7.18;;;12.40;99.60;;;;;;5013004;28;20104;-78
2023/10/27 00:32:47;;;;;;;13.65;6.15;;;12.30;99.50;;;;;;5014116;28;20036;-76
2023/10/27 00:35:13;;;;;;;12.10;5.85;;;12.30;99.50;;;;;;5014488;28;20159;-77
2023/10/27 00:37:40;;;;;;;11.52;5.78;;;12.30;99.50;;;;;;5014942;28;20072;-76
2023/10/27 00:40:07;;;;;;;10.50;5.88;;;12.30;99.50;;;;;;5013324;28;20045;-76
2023/10/27 00:42:33;;;;;;;9.75;5.68;;;12.30;99.50;;;;;;5017744;28;20037;-75
2023/10/27 00:44:59;;;;;;;14.10;6.88;;;12.30;99.60;;;;;;5014716;28;20473;-77
2023/10/27 00:47:25;;;;;;;15.88;6.88;;;12.30;99.50;;;;;;5015414;28;20125;-77
2023/10/27 00:49:54;;;;;;;13.90;6.63;;;12.30;99.60;;;;;;5012222;28;20439;-79
2023/10/27 00:52:21;;;;;;;11.40;6.07;;;12.20;99.60;;;;;;5016483;28;20029;-77
2023/10/27 00:54:48;;;;;;;12.73;6.63;;;12.20;99.60;;;;;;5017546;28;20451;-77
2023/10/27 00:57:15;;;;;;;15.23;7.18;;;12.20;99.60;;;;;;5019138;28;20041;-77
2023/10/27 00:59:41;;;;;;;12.52;6.65;;;12.20;99.60;;;;;;5032507;28;20530;-77
2023/10/27 01:02:07;;;;;;;12.73;7.28;;;12.20;99.60;;;;;;5020026;28;20057;-77
2023/10/27 01:04:32;;;;;;;14.70;7.32;;;12.20;99.60;;;;;;5035100;28;20111;-78
2023/10/27 01:06:58;;;;;;;12.90;7.32;;;12.20;99.60;;;;;;5016714;28;20171;-81
2023/10/27 01:09:24;;;;;;;13.38;8.15;;;12.20;99.60;;;;;;5019270;28;20034;-77
2023/10/27 01:11:51;;;;;;;15.13;8.13;;;12.20;99.70;;;;;;5015408;28;20041;-77
2023/10/27 01:14:17;;;;;;;13.70;8.20;;;12.20;99.70;;;;;;5030195;28;20026;-77
2023/10/27 01:16:43;;;;;;;13.10;8.13;;;12.20;99.70;;;;;;5015511;28;20034;-78
2023/10/27 01:19:09;;;;;;;15.95;10.35;;;12.20;99.70;;;;;;5018207;28;20037;-76
2023/10/27 01:21:34;;;;;;;16.88;9.90;;;12.20;99.70;;;;;;5015895;28;20176;-76
2023/10/27 01:24:02;;;;;;;14.57;10.05;;;12.20;99.70;;;;;;5021800;28;20352;-78
2023/10/27 01:26:28;;;;;;;18.73;11.48;;;12.20;99.70;;;;;;5018790;28;20046;-76
2023/10/27 01:28:54;;;;;;;19.73;11.52;;;12.20;99.70;;;;;;5010700;28;20057;-77
2023/10/27 01:31:19;;;;;;;21.85;13.85;;;12.20;99.60;;;;;;5017398;28;20045;-78
2023/10/27 01:33:45;;;;;;;21.08;14.23;;;12.10;99.70;;;;;;5016401;28;20186;-77
2023/10/27 01:36:10;;;;;;;19.67;13.05;;;12.20;99.60;;;;;;5019528;28;20395;-75
2023/10/27 01:38:36;;;;;;;19.70;12.77;;;12.10;99.70;;;;;;5015974;28;20455;-78
2023/10/27 01:41:02;;;;;;;27.42;16.48;;;12.20;99.70;;;;;;5018317;28;20144;-77
2023/10/27 01:43:27;;;;;;;24.10;15.95;;;12.10;99.70;;;;;;5016115;28;20041;-78
2023/10/27 01:45:53;;;;;;;25.38;15.05;;;12.20;99.70;;;;;;5021242;28;20406;-77
2023/10/27 01:48:18;;;;;;;27.85;17.50;;;12.20;99.80;;;;;;5016597;28;20082;-77
2023/10/27 01:50:44;;;;;;;27.77;17.10;;;12.20;99.70;;;;;;5018684;28;20202;-76
2023/10/27 01:53:10;;;;;;;27.55;16.77;;;12.20;99.80;;;;;;5018263;28;20470;-80
2023/10/27 01:55:35;;;;;;;29.63;18.13;;;12.20;99.80;;;;;;5020219;28;20122;-79
2023/10/27 01:58:02;;;;;;;24.75;17.60;;;12.20;99.80;;;;;;5016794;28;20036;-76
2023/10/27 02:00:28;;;;;;;28.77;18.55;;;12.20;99.80;;;;;;5016458;28;20343;-76
2023/10/27 02:02:53;;;;;;;30.17;18.90;;;12.20;99.80;;;;;;5017195;28;20386;-80
2023/10/27 02:05:19;;;;;;;27.80;18.02;;;12.20;99.80;;;;;;5017518;28;20381;-77
2023/10/27 02:07:45;;;;;;;27.83;18.48;;;12.20;99.80;;;;;;5015857;28;20034;-76
2023/10/27 02:10:10;;;;;;;30.50;18.40;;;12.20;99.70;;;;;;5016114;28;20040;-77
2023/10/27 02:12:36;;;;;;;27.58;17.38;;;12.20;99.80;;;;;;5014783;28;20025;-78
2023/10/27 02:15:02;;;;;;;29.75;18.73;;;12.20;99.80;;;;;;5018699;28;20033;-81
2023/10/27 02:17:28;;;;;;;33.13;19.17;;;12.20;99.80;;;;;;5018666;28;20433;-76
2023/10/27 02:19:55;;;;;;;31.38;18.38;;;12.30;99.80;;;;;;5017524;28;20046;-77
2023/10/27 02:22:21;;;;;;;31.42;17.27;;;12.30;99.80;;;;;;5015915;28;20061;-78
2023/10/27 02:24:47;;;;;;;30.73;16.90;;;12.20;99.80;;;;;;5017892;28;20064;-77
2023/10/27 02:27:13;;;;;;;26.25;16.10;;;12.20;99.70;;;;;;5012710;28;20546;-75
2023/10/27 02:29:38;;;;;;;26.33;15.07;;;12.20;99.80;;;;;;5013252;28;20028;-79
2023/10/27 02:32:04;;;;;;;24.10;14.38;;;12.20;99.70;;;;;;5018101;28;20674;-76
2023/10/27 02:34:30;;;;;;;22.08;13.65;;;12.20;99.70;;;;;;5016941;28;20017;-81
2023/10/27 02:36:55;;;;;;;22.00;12.02;;;12.20;99.70;;;;;;5011207;28;20056;-78
2023/10/27 02:39:21;;;;;;;18.17;11.88;;;12.20;99.60;;;;;;5017959;28;20044;-77
2023/10/27 02:41:47;;;;;;;19.83;11.00;;;12.10;99.60;;;;;;5014275;28;20096;-78
2023/10/27 02:44:12;;;;;;;17.98;9.68;;;12.10;99.60;;;;;;5013866;28;20586;-76
2023/10/27 02:46:38;;;;;;;17.25;8.55;;;12.10;99.60;;;;;;5013720;28;20056;-79
2023/10/27 02:49:04;;;;;;;13.45;7.70;;;12.10;99.60;;;;;;5012410;28;20034;-79
2023/10/27 02:51:30;;;;;;;16.33;8.38;;;12.10;99.60;;;;;;5013038;28;20494;-77
2023/10/27 02:53:56;;;;;;;16.92;7.65;;;12.10;99.60;;;;;;5015558;28;20021;-80
2023/10/27 02:56:22;;;;;;;16.30;7.32;;;12.10;99.70;;;;;;5014027;28;20230;-78
2023/10/27 02:58:48;;;;;;;12.32;7.43;;;12.10;99.60;;;;;;5018951;28;20025;-75
2023/10/27 03:01:14;;;;;;;15.45;7.93;;;12.10;99.60;;;;;;5017435;28;20041;-76
2023/10/27 03:03:41;;;;;;;14.00;8.20;;;12.10;99.60;;;;;;5014138;28;20088;-77
2023/10/27 03:06:07;;;;;;;17.85;8.93;;;12.10;99.60;;;;;;5013210;28;20376;-77
2023/10/27 03:08:33;;;;;;;14.82;7.85;;;12.10;99.60;;;;;;5014101;28;20076;-77
2023/10/27 03:10:59;;;;;;;15.52;8.50;;;12.10;99.70;;;;;;5016862;28;20034;-76
2023/10/27 03:13:26;;;;;;;15.45;8.30;;;12.10;99.60;;;;;;5017526;28;20040;-79
2023/10/27 03:15:52;;;;;;;15.43;8.70;;;12.10;99.70;;;;;;5010140;28;20117;-77
2023/10/27 03:18:18;;;;;;;15.02;7.90;;;12.10;99.70;;;;;;5017571;28;20125;-76
2023/10/27 03:20:43;;;;;;;14.10;7.10;;;12.10;99.70;;;;;;5018879;28;20383;-81
2023/10/27 03:23:09;;;;;;;13.02;6.40;;;12.10;99.60;;;;;;5016785;28;20048;-77
2023/10/27 03:25:34;;;;;;;13.60;6.57;;;12.10;99.50;;;;;;5015905;28;20288;-76
2023/10/27 03:28:00;;;;;;;14.30;6.22;;;12.00;99.50;;;;;;5014698;28;20099;-76
2023/10/27 03:30:27;;;;;;;11.93;5.82;;;12.00;99.50;;;;;;5015209;28;20053;-76
2023/10/27 03:32:53;;;;;;;9.98;5.70;;;12.00;99.50;;;;;;5015417;28;20033;-80
2023/10/27 03:35:19;;;;;;;11.07;5.18;;;11.90;99.50;;;;;;5017663;28;20042;-76
2023/10/27 03:37:45;;;;;;;12.13;5.07;;;11.80;99.40;;;;;;5008973;28;20049;-78
2023/10/27 03:40:11;;;;;;;12.60;5.35;;;11.80;99.40;;;;;;5015383;28;20494;-80
2023/10/27 03:42:36;;;;;;;11.45;5.38;;;11.80;99.40;;;;;;5019461;28;20036;-76
2023/10/27 03:45:03;;;;;;;12.13;5.30;;;11.80;99.30;;;;;;5017518;28;20029;-76
2023/10/27 03:47:28;;;;;;;11.35;5.60;;;11.70;99.40;;;;;;5017762;28;20034;-78
2023/10/27 03:49:54;;;;;;;10.30;5.82;;;11.70;99.40;;;;;;5011898;28;20058;-76
2023/10/27 03:52:19;;;;;;;10.30;5.35;;;11.60;99.40;;;;;;5016578;28;20048;-80
2023/10/27 03:54:45;;;;;;;10.25;5.60;;;11.70;99.50;;;;;;5015196;28;20552;-77
2023/10/27 03:57:11;;;;;;;11.10;6.03;;;11.60;99.50;;;;;;5018867;28;20087;-76
2023/10/27 03:59:36;;;;;;;11.73;5.47;;;11.60;99.50;;;;;;5016465;28;21240;-79
2023/10/27 04:02:02;;;;;;;10.45;5.50;;;11.60;99.50;;;;;;5017128;28;20046;-77
2023/10/27 04:04:28;;;;;;;9.32;5.32;;;11.60;99.40;;;;;;5014967;28;20053;-77
2023/10/27 04:06:57;;;;;;;12.63;5.13;;;11.60;99.50;;;;;;5013449;28;20029;-77
2023/10/27 04:09:23;;;;;;;13.15;5.78;;;11.60;99.50;;;;;;5018318;28;20029;-77
2023/10/27 04:11:49;;;;;;;11.70;5.57;;;11.60;99.40;;;;;;5017172;28;20773;-78
2023/10/27 04:14:15;;;;;;;10.02;5.32;;;11.60;99.30;;;;;;5016600;28;20051;-77
2023/10/27 04:16:40;;;;;;;9.57;5.43;;;11.60;99.40;;;;;;5015060;28;20474;-78
2023/10/27 04:19:06;;;;;;;8.70;5.03;;;11.60;99.30;;;;;;5016846;28;20527;-80
2023/10/27 04:21:32;;;;;;;12.85;5.20;;;11.50;99.30;;;;;;5016443;28;20103;-75
2023/10/27 04:23:58;;;;;;;8.98;5.20;;;11.50;99.30;;;;;;5015925;28;20045;-78
2023/10/27 04:26:24;;;;;;;9.25;5.55;;;11.50;99.40;;;;;;5016523;28;20057;-76
2023/10/27 04:28:50;;;;;;;9.93;5.22;;;11.40;99.40;;;;;;5016633;28;20029;-76
2023/10/27 04:31:16;;;;;;;8.70;5.05;;;11.40;99.40;;;;;;5014228;28;20037;-75
2023/10/27 04:33:43;;;;;;;8.40;5.25;;;11.40;99.40;;;;;;5019179;28;20030;-79
2023/10/27 04:36:09;;;;;;;11.25;5.25;;;11.30;99.40;;;;;;5011588;28;20108;-75
2023/10/27 04:38:34;;;;;;;11.90;5.35;;;11.30;99.30;;;;;;5016317;28;20405;-77
2023/10/27 04:41:00;;;;;;;10.52;4.80;;;11.30;99.40;;;;;;5012214;28;20033;-76
2023/10/27 04:43:25;;;;;;;10.15;5.65;;;11.20;99.40;;;;;;5013075;28;20526;-76
2023/10/27 04:45:51;;;;;;;9.15;5.43;;;11.20;99.40;;;;;;5018153;28;20033;-76
2023/10/27 04:48:17;;;;;;;9.35;5.28;;;11.20;99.40;;;;;;5012926;28;20131;-76
2023/10/27 04:50:42;;;;;;;11.40;5.50;;;11.20;99.40;;;;;;5011821;28;20441;-78
2023/10/27 04:53:08;;;;;;;7.90;5.05;;;11.20;99.40;;;;;;5014630;28;20041;-77
2023/10/27 04:55:34;;;;;;;9.20;5.78;;;11.20;99.40;;;;;;5012735;28;20091;-76
2023/10/27 04:57:59;;;;;;;10.40;5.80;;;11.10;99.40;;;;;;5021145;28;20071;-80
2023/10/27 05:00:25;;;;;;;10.85;5.60;;;11.10;99.40;;;;;;5020043;28;20049;-76
2023/10/27 05:02:53;;;;;;;9.50;5.65;;;11.10;99.40;;;;;;5020098;28;20087;-77
2023/10/27 05:05:20;;;;;;;9.85;5.20;;;11.10;99.40;;;;;;5018639;28;20125;-78
2023/10/27 05:07:47;;;;;;;9.15;5.20;;;11.10;99.40;;;;;;5016645;28;20075;-77
2023/10/27 05:10:12;;;;;;;12.38;5.95;;;11.00;99.40;;;;;;5019219;28;20030;-76
2023/10/27 05:12:38;;;;;;;10.88;5.65;;;11.00;99.40;;;;;;5020276;28;20036;-77
2023/10/27 05:15:05;;;;;;;10.90;5.47;;;11.00;99.50;;;;;;5017423;28;20083;-80
2023/10/27 05:17:37;;;;;;;10.90;6.03;;;10.90;99.40;;;;;;5019480;28;20120;-80
2023/10/27 05:20:05;;;;;;;9.98;5.47;;;10.90;99.50;;;;;;5019450;28;20037;-75
2023/10/27 05:22:31;;;;;;;9.27;5.53;;;10.90;99.50;;;;;;5002224;28;20030;-76
2023/10/27 05:25:03;;;;;;;10.55;6.03;;;10.90;99.50;;;;;;5017028;28;20061;-76
2023/10/27 05:27:29;;;;;;;10.43;6.15;;;10.90;99.50;;;;;;5017857;28;20037;-79
2023/10/27 05:29:55;;;;;;;9.10;4.80;;;10.90;99.50;;;;;;5017655;28;20065;-81
2023/10/27 05:32:20;;;;;;;9.68;5.28;;;10.80;99.50;;;;;;5015249;28;20071;-79
2023/10/27 05:34:47;;;;;;;11.13;5.53;;;10.80;99.50;;;;;;5010418;28;20102;-75
2023/10/27 05:37:13;;;;;;;9.32;5.38;;;10.80;99.50;;;;;;5009663;28;20026;-77
2023/10/27 05:39:39;;;;;;;11.32;5.75;;;10.90;99.60;;;;;;5014128;28;20053;-75
2023/10/27 05:42:05;;;;;;;11.85;5.80;;;10.80;99.60;;;;;;5012948;28;20029;-78
2023/10/27 05:44:30;;;;;;;10.05;5.13;;;10.90;99.70;;;;;;5017777;28;20051;-77
2023/10/27 05:46:58;;;;;;;11.13;5.00;;;10.90;99.70;;;;;;5015824;28;20033;-77
2023/10/27 05:49:24;;;;;;;11.90;5.82;;;10.90;99.70;;;;;;5019493;28;20076;-77
2023/10/27 05:51:50;;;;;;;14.60;4.93;;;10.90;99.70;;;;;;5027547;28;20109;-74
2023/10/27 05:54:16;;;;;;;9.63;4.68;;;10.90;99.70;;;;;;5017395;28;20276;-74
2023/10/27 05:56:41;;;;;;;13.07;5.60;;;10.90;99.70;;;;;;5017164;28;20038;-73
2023/10/27 05:59:07;;;;;;;10.77;4.95;;;10.90;99.70;;;;;;5017617;28;20034;-73
2023/10/27 06:01:35;;;;;;;12.65;5.25;;;10.90;99.70;;;;;;5006891;28;20342;-72
2023/10/27 06:04:01;;;;;;;13.20;5.38;;;10.90;99.80;;;;;;5013966;28;20112;-73
2023/10/27 06:06:27;;;;;;;10.60;4.40;;;10.90;99.80;;;;;;5013237;28;20130;-74
2023/10/27 06:08:53;;;;;;;13.50;5.07;;;10.90;99.80;;;;;;5018362;28;20116;-73
2023/10/27 06:11:19;;;;;;;12.27;4.95;;;10.90;99.80;;;;;;5015151;28;20557;-73
2023/10/27 06:13:45;;;;;;;10.82;4.45;;;11.00;99.90;;;;;;5019138;28;20068;-73
2023/10/27 06:16:11;;;;;;;13.85;5.13;;;11.00;99.80;;;;;;5019853;28;20042;-72
2023/10/27 06:18:37;;;;;;;11.32;4.78;;;11.00;99.80;;;;;;5018135;28;20037;-73
2023/10/27 06:21:04;;;;;;;15.27;5.38;;;11.10;99.80;;;;;;5018778;28;20396;-72
2023/10/27 06:23:29;;;;;;;9.63;4.45;;;11.10;99.80;;;;;;5018420;28;20121;-73
2023/10/27 06:25:55;;;;;;;10.63;4.68;;;11.10;99.80;;;;;;5017233;28;20132;-72
2023/10/27 06:28:21;;;;;;;11.43;4.70;;;11.10;99.80;;;;;;5018143;28;20148;-72
2023/10/27 06:30:46;;;;;;;13.63;4.90;;;11.10;99.80;;;;;;5020281;28;20056;-73
2023/10/27 06:33:12;;;;;;;11.80;4.70;;;11.10;99.80;;;;;;5015443;28;20610;-74
2023/10/27 06:35:38;;;;;;;10.43;4.60;;;11.10;99.80;;;;;;5021376;28;20033;-72
2023/10/27 06:38:04;;;;;;;8.85;4.13;;;11.10;99.80;;;;;;5015587;28;20033;-73
2023/10/27 06:40:30;;;;;;;14.43;5.03;;;11.10;99.80;;;;;;5016365;28;20417;-72
2023/10/27 06:42:56;;;;;;;13.73;4.43;;;11.20;99.80;;;;;;5015579;28;20559;-72
2023/10/27 06:45:21;;;;;;;10.52;4.60;;;11.10;99.70;;;;;;5013222;28;20049;-74
2023/10/27 06:47:47;;;;;;;12.35;4.40;;;11.10;99.70;;;;;;5020536;28;20112;-71
2023/10/27 06:50:12;;;;;;;12.98;4.25;;;11.10;99.70;;;;;;5016305;28;20045;-73
2023/10/27 06:52:38;;;;;;;12.90;4.03;;;11.10;99.70;;;;;;5018819;28;20167;-74
2023/10/27 06:55:04;;;;;;;12.13;4.68;;;11.10;99.70;;;;;;5019601;28;20266;-74
2023/10/27 06:57:30;;;;;;;12.75;4.68;;;11.10;99.70;;;;;;5016101;28;20034;-73
2023/10/27 06:59:56;;;;;;;10.15;4.32;;;11.10;99.60;;;;;;5016560;28;20045;-73
2023/10/27 07:02:25;;;;;;;10.02;4.30;;;11.10;99.70;;;;;;5017092;28;20091;-75
2023/10/27 07:04:50;;;;;;;13.82;4.40;;;11.20;99.70;;;;;;5020833;28;20498;-73
2023/10/27 07:07:16;;;;;;;9.50;3.63;;;11.20;99.70;;;;;;5016624;28;20029;-73
2023/10/27 07:09:42;;;;;;;8.52;3.90;;;11.20;99.70;;;;;;5017976;28;20061;-75
2023/10/27 07:12:08;;;;;;;11.43;3.88;;;11.30;99.70;;;;;;5016632;28;20029;-75
2023/10/27 07:14:37;;;;;;;14.02;4.82;;;11.30;99.70;;;;;;5020608;28;20025;-72
2023/10/27 07:17:03;;;;;;;15.32;4.18;;;11.30;99.60;;;;;;5012072;28;20049;-73
2023/10/27 07:19:32;;;;;;;15.50;5.70;;;11.40;99.60;;;;;;5016891;28;20588;-74
2023/10/27 07:21:58;;;;;;;11.30;4.30;;;11.40;99.60;;;;;;5012848;28;20056;-72
2023/10/27 07:24:23;;;;;;;10.63;4.40;;;11.50;99.50;;;;;;5018482;28;20033;-72
2023/10/27 07:26:49;;;;;;;14.32;5.75;;;11.50;99.40;;;;;;5011273;28;20068;-73
2023/10/27 07:29:15;;;;;;;12.90;6.25;;;11.50;99.30;;;;;;5014398;28;20300;-72
2023/10/27 07:31:40;;;;;;;10.40;5.30;;;11.50;99.30;;;;;;5014983;28;20057;-73
2023/10/27 07:34:07;;;;;;;17.20;6.10;;;11.50;99.20;;;;;;5029201;28;20568;-73
2023/10/27 07:36:33;;;;;;;10.90;5.25;;;11.50;99.20;;;;;;5015454;28;20045;-74
2023/10/27 07:38:59;;;;;;;15.30;5.70;;;11.60;99.20;;;;;;5017767;28;20112;-74
2023/10/27 07:41:24;;;;;;;14.38;6.30;;;11.60;99.10;;;;;;5012430;28;20065;-71
2023/10/27 07:43:50;;;;;;;14.63;5.93;;;11.70;99.10;;;;;;5021047;28;20458;-74
2023/10/27 07:46:16;;;;;;;12.95;5.53;;;11.70;98.90;;;;;;5017739;28;20087;-74
2023/10/27 07:48:41;;;;;;;7.55;3.53;;;11.70;98.80;;;;;;5020645;28;20025;-73
2023/10/27 07:51:07;;;;;;;9.25;3.28;;;11.70;98.80;;;;;;5017670;28;20145;-71
2023/10/27 07:53:33;;;;;;;5.97;2.90;;;11.70;98.60;;;;;;5016112;28;20224;-74
2023/10/27 07:55:58;;;;;;;7.95;2.60;;;11.70;98.40;;;;;;5020448;28;20395;-75
2023/10/27 07:58:25;;;;;;;7.22;2.50;;;11.70;98.20;;;;;;5016744;28;20043;-73
2023/10/27 08:00:51;;;;;;;6.38;2.17;;;11.70;98.10;;;;;;5021805;28;20324;-72
2023/10/27 08:03:18;;;;;;;7.97;2.20;;;11.80;98.10;;;;;;5014790;28;20041;-72
2023/10/27 08:05:43;;;;;;;7.55;2.33;;;11.80;98.00;;;;;;5016791;28;20021;-72
2023/10/27 08:08:09;;;;;;;8.23;2.75;;;11.80;97.90;;;;;;5015263;28;20445;-72
2023/10/27 08:10:39;;;;;;;7.18;2.33;;;11.80;97.70;;;;;;5015982;28;20487;-72
2023/10/27 08:13:05;;;;;;;3.95;2.05;;;11.90;97.70;;;;;;5017351;28;20116;-74
2023/10/27 08:15:32;;;;;;;6.00;2.45;;;11.90;97.80;;;;;;5018805;28;20037;-74
2023/10/27 08:17:58;;;;;;;7.53;2.22;;;12.00;97.80;;;;;;5019120;28;20033;-73
2023/10/27 08:20:24;;;;;;;6.45;2.80;;;12.00;97.70;;;;;;5010678;28;20525;-75
2023/10/27 08:22:50;;;;;;;8.55;3.13;;;12.10;97.60;;;;;;5017059;28;20042;-74
2023/10/27 08:25:16;;;;;;;8.77;3.38;;;12.10;97.70;;;;;;5015507;28;20042;-72
2023/10/27 08:27:41;;;;;;;6.57;3.22;;;12.10;97.70;;;;;;5016955;28;20053;-72
2023/10/27 08:30:08;;;;;;;11.35;4.47;;;12.20;97.70;;;;;;5014502;28;20338;-72
2023/10/27 08:32:33;;;;;;;7.57;4.47;;;12.20;97.80;;;;;;5017961;28;20386;-74
2023/10/27 08:34:59;;;;;;;8.00;5.07;;;12.20;97.80;;;;;;5013625;28;20048;-75
2023/10/27 08:37:25;;;;;;;10.68;5.50;;;12.30;97.90;;;;;;5016214;28;20052;-74
2023/10/27 08:39:51;;;;;;;11.98;6.05;;;12.40;97.90;;;;;;5018340;28;20045;-73
2023/10/27 08:42:18;;;;;;;12.93;6.93;;;12.40;97.80;;;;;;5011165;28;20070;-73
2023/10/27 08:44:45;;;;;;;12.18;6.95;;;12.40;97.80;;;;;;5014730;28;20041;-74
2023/10/27 08:47:12;;;;;;;12.55;6.78;;;12.50;97.80;;;;;;5012908;28;20573;-75
2023/10/27 08:49:38;;;;;;;13.07;7.57;;;12.50;97.80;;;;;;5015615;28;20106;-76
2023/10/27 08:52:04;;;;;;;15.88;8.80;;;12.50;97.80;;;;;;5018133;28;20049;-76
2023/10/27 08:54:31;;;;;;;16.10;8.65;;;12.50;97.90;;;;;;5019445;28;20489;-73
2023/10/27 08:56:56;;;;;;;14.93;8.50;;;12.50;97.80;;;;;;5013113;28;20053;-73
2023/10/27 08:59:22;;;;;;;14.10;9.02;;;12.50;97.90;;;;;;5015940;28;20030;-75
2023/10/27 09:01:48;;;;;;;14.02;9.98;;;12.50;97.90;;;;;;5014050;28;20045;-73
2023/10/27 09:04:19;;;;;;;14.30;8.63;;;12.50;97.90;;;;;;5013912;28;20037;-73
2023/10/27 09:06:45;;;;;;;15.15;8.23;;;12.50;98.00;;;;;;5014574;28;20037;-74
2023/10/27 09:09:10;;;;;;;12.63;8.30;;;12.50;97.80;;;;;;5016459;28;20039;-73
2023/10/27 09:11:44;;;;;;;16.55;8.73;;;12.50;97.80;;;;;;5016518;28;20446;-74
2023/10/27 09:14:23;;;;;;;14.88;7.90;;;12.50;97.90;;;;;;5012486;28;20022;-73
2023/10/27 09:16:50;;;;;;;10.93;6.90;;;12.40;97.90;;;;;;5018840;28;20033;-72
2023/10/27 09:19:22;;;;;;;13.52;6.57;;;12.50;97.80;;;;;;5016590;28;20104;-72
2023/10/27 09:21:48;;;;;;;11.70;6.60;;;12.40;97.70;;;;;;5011598;28;20041;-75
2023/10/27 09:24:26;;;;;;;10.98;7.13;;;12.40;97.70;;;;;;5015325;28;20119;-74
2023/10/27 09:26:53;;;;;;;13.18;6.32;;;12.40;97.70;;;;;;5017604;28;20057;-74
2023/10/27 09:29:20;;;;;;;13.20;7.28;;;12.40;97.80;;;;;;5018485;28;20157;-74
2023/10/27 09:31:45;;;;;;;10.32;6.60;;;12.40;97.70;;;;;;5013223;28;20525;-71
2023/10/27 09:34:23;;;;;;;14.98;7.18;;;12.40;97.70;;;;;;5017907;28;20029;-74
2023/10/27 09:36:51;;;;;;;14.82;7.10;;;12.40;97.80;;;;;;5012392;28;20431;-73
2023/10/27 09:39:20;;;;;;;14.25;8.25;;;12.40;97.70;;;;;;5019406;28;20059;-73
2023/10/27 09:42:06;;;;;;;12.90;7.60;;;12.30;97.70;;;;;;5009292;28;20034;-73
2023/10/27 09:44:43;;;;;;;16.20;9.35;;;12.40;97.80;;;;;;5018508;28;20033;-73
2023/10/27 09:47:24;;;;;;;15.18;10.00;;;12.40;97.80;;;;;;5018174;28;20017;-73
2023/10/27 09:49:57;;;;;;;15.15;9.68;;;12.40;98.00;;;;;;5014320;28;20071;-73
2023/10/27 09:52:28;;;;;;;15.85;10.45;;;12.30;97.90;;;;;;5020643;28;20493;-73
2023/10/27 09:54:57;;;;;;;15.40;11.52;;;12.40;98.00;;;;;;5017060;28;20222;-73
2023/10/27 09:57:23;;;;;;;13.95;9.75;;;12.40;98.00;;;;;;5020473;28;20022;-75
2023/10/27 09:59:50;;;;;;;17.77;12.18;;;12.40;98.00;;;;;;5012869;28;20038;-74
2023/10/27 10:02:17;;;;;;;19.58;12.75;;;12.50;97.80;;;;;;5017316;28;20034;-73
2023/10/27 10:04:52;;;;;;;24.33;13.38;;;12.50;97.90;;;;;;5016928;28;20041;-73
2023/10/27 10:07:37;;;;;;;;;;;12.60;97.80;;;;;;5018132;28;20033;-73
2023/10/27 10:10:16;;;;;;;18.70;12.30;;;12.60;97.90;;;;;;5019556;28;19987;-73
2023/10/27 10:13:08;;;;;;;23.02;17.92;;;12.60;97.80;;;;;;5016977;28;20511;-72
2023/10/27 10:15:34;;;;;;;19.02;13.85;;;12.60;97.80;;;;;;5016137;28;20075;-73
2023/10/27 10:18:02;;;;;;;15.82;11.40;;;12.60;97.90;;;;;;5012525;28;20117;-73
2023/10/27 10:20:47;;;;;;;19.38;11.43;;;12.70;97.90;;;;;;5010866;28;20036;-72
2023/10/27 10:23:13;;;;;;;16.05;10.43;;;12.70;97.70;;;;;;5019092;28;20061;-74
2023/10/27 10:25:59;;;;;;;15.60;10.52;;;12.80;97.70;;;;;;5015559;28;20033;-73
2023/10/27 10:28:29;;;;;;;19.15;10.48;;;12.80;97.50;;;;;;5014433;28;20037;-73
2023/10/27 10:31:07;;;;;;;17.92;10.73;;;12.80;97.50;;;;;;5019478;28;20056;-74
2023/10/27 10:33:34;;;;;;;20.33;11.40;;;12.80;97.40;;;;;;5015238;28;20049;-74
2023/10/27 10:36:27;;;;;;;18.38;9.57;;;12.80;97.40;;;;;;5013656;28;20037;-74
2023/10/27 10:38:55;;;;;;;20.63;9.60;;;12.80;97.10;;;;;;5012919;28;20081;-73
2023/10/27 10:41:44;;;;;;;15.52;9.35;;;12.80;97.10;;;;;;5018011;28;20061;-73
2023/10/27 10:44:12;;;;;;;22.02;13.48;;;12.90;97.20;;;;;;5020918;28;20374;-72
2023/10/27 10:46:38;;;;;;;18.23;10.10;;;12.90;97.00;;;;;;5011550;28;20047;-74
2023/10/27 10:49:04;;;;;;;13.25;8.55;;;12.90;97.00;;;;;;5016545;28;20029;-74
2023/10/27 10:51:30;;;;;;;15.27;7.70;;;12.90;96.90;;;;;;5012204;28;20127;-73
2023/10/27 10:53:56;;;;;;;16.15;8.55;;;13.00;96.80;;;;;;5021230;28;20454;-73
2023/10/27 10:56:25;;;;;;;13.95;7.78;;;13.00;96.80;;;;;;5015247;28;20038;-73
2023/10/27 10:58:51;;;;;;;13.55;7.35;;;12.90;96.60;;;;;;5020227;28;20101;-73
2023/10/27 11:01:17;;;;;;;15.80;7.15;;;12.90;96.70;;;;;;5017694;28;20080;-73
2023/10/27 11:03:49;;;;;;;12.38;7.00;;;12.90;96.90;;;;;;5021183;28;20344;-73
2023/10/27 11:06:19;;;;;;;11.20;6.30;;;12.90;97.00;;;;;;5014920;28;20037;-73
2023/10/27 11:08:45;;;;;;;8.68;5.85;;;12.90;97.10;;;;;;5017999;28;20063;-74
2023/10/27 11:11:16;;;;;;;13.65;7.13;;;13.10;97.30;;;;;;5015646;28;20460;-73
2023/10/27 11:13:46;;;;;;;11.25;6.22;;;13.30;97.20;;;;;;5015240;28;20379;-73
2023/10/27 11:16:23;;;;;;;10.52;6.43;;;13.50;97.00;;;;;;5009313;28;20117;-75
2023/10/27 11:18:52;;;;;;;10.80;5.10;;;13.60;96.70;;;;;;5007897;28;20629;-73
2023/10/27 11:21:19;;;;;;;13.70;8.25;;;13.60;96.00;;;;;;5013638;28;20038;-73
2023/10/27 11:23:48;;;;;;;10.63;6.15;;;13.70;96.30;;;;;;5012420;28;20021;-74
2023/10/27 11:26:16;;;;;;;14.73;7.20;;;13.80;95.90;;;;;;5014065;28;20075;-74
2023/10/27 11:28:43;;;;;;;13.23;6.20;;;14.00;95.90;;;;;;5007361;28;20018;-75
2023/10/27 11:31:17;;;;;;;7.63;4.28;;;14.10;95.40;;;;;;5016641;28;20061;-73
2023/10/27 11:34:03;;;;;;;9.18;4.63;;;14.20;94.70;;;;;;5012917;28;20038;-73
2023/10/27 11:36:33;;;;;;;9.13;3.53;;;14.30;94.20;;;;;;5015341;28;20124;-73
2023/10/27 11:39:21;;;;;;;7.57;3.30;;;14.30;93.60;;;;;;5012227;28;20053;-73
2023/10/27 11:41:53;;;;;;;8.18;4.15;;;14.30;93.20;;;;;;5011680;28;20026;-74
2023/10/27 11:44:19;;;;;;;9.25;4.97;;;14.30;93.30;;;;;;5011957;28;20026;-74
2023/10/27 11:46:58;;;;;;;7.75;4.50;;;14.50;93.30;;;;;;5014996;28;20045;-75
2023/10/27 11:49:25;;;;;;;7.38;3.13;;;14.40;93.30;;;;;;5033041;28;20033;-73
2023/10/27 11:51:55;;;;;;;8.15;3.90;;;14.50;93.30;;;;;;5011501;28;20030;-75
2023/10/27 11:54:25;;;;;;;7.15;3.00;;;14.60;93.40;;;;;;5014413;28;20036;-74
2023/10/27 11:56:51;;;;;;;4.10;2.35;;;14.70;92.90;;;;;;5012163;28;20079;-74
2023/10/27 11:59:17;;;;;;;4.47;2.17;;;14.90;92.20;;;;;;5017324;28;20072;-76
2023/10/27 12:01:43;;;;;;;4.72;1.80;;;15.00;90.90;;;;;;5016623;28;20026;-74
2023/10/27 12:04:10;;;;;;;3.40;1.33;;;15.10;90.50;;;;;;5014443;28;20033;-73
2023/10/27 12:06:38;;;;;;;3.45;1.40;;;15.10;89.10;;;;;;5017445;28;20490;-76
2023/10/27 12:09:04;;;;;;;4.05;1.30;;;15.20;88.10;;;;;;5017886;28;20025;-75
2023/10/27 12:11:29;;;;;;;2.30;1.20;;;15.30;87.60;;;;;;5016901;28;20072;-77
2023/10/27 12:13:56;;;;;;;3.92;1.42;;;15.50;87.20;;;;;;5015498;28;20068;-78
2023/10/27 12:16:24;;;;;;;2.83;1.20;;;15.60;87.40;;;;;;5012430;28;20033;-76
2023/10/27 12:18:50;;;;;;;5.45;2.38;;;15.60;87.00;;;;;;5014466;28;20037;-77
2023/10/27 12:21:15;;;;;;;5.00;2.72;;;15.60;87.60;;;;;;5015559;28;20041;-76
2023/10/27 12:23:41;;;;;;;5.78;2.90;;;15.80;87.90;;;;;;5016452;28;20041;-74
2023/10/27 12:26:09;;;;;;;4.35;1.65;;;15.70;87.60;;;;;;5017149;28;20053;-75
2023/10/27 12:28:35;;;;;;;2.28;1.50;;;15.80;87.20;;;;;;5013619;28;20037;-75
2023/10/27 12:31:01;;;;;;;3.92;2.00;;;15.80;86.20;;;;;;5016839;28;20046;-74
2023/10/27 12:33:27;;;;;;;3.72;1.67;;;15.80;85.80;;;;;;5012877;28;20128;-76
2023/10/27 12:35:54;;;;;;;2.50;1.38;;;15.60;85.20;;;;;;5014903;28;20458;-75
2023/10/27 12:38:20;;;;;;;2.78;1.30;;;15.50;84.60;;;;;;5015343;28;20037;-75